Time;durP1;ratioP1;P1;durP2;ratioP2;P2;SDS_P1;SDS_P2;PMS_P1;PMS_P2;Temp;Humidity;BMP_temperature;BMP_pressure;BME280_temperature;BME280_humidity;BME280_pressure;Samples;Min_cycle;Max_cycle;Signal;HPM_P1;HPM_P2
2023/04/18 00:01:11;;;;;;;18.33;14.27;;;;;;;10.02;86.83;98565.22;4205373;28;20677;-81
2023/04/18 00:03:15;;;;;;;18.17;14.80;;;;;;;10.02;86.01;98569.59;4173428;28;20632;-81
2023/04/18 00:05:18;;;;;;;18.42;15.60;;;;;;;9.93;86.30;98568.38;4184118;28;21266;-81
2023/04/18 00:07:21;;;;;;;18.13;14.93;;;;;;;9.92;86.38;98568.41;4188248;28;20260;-81
2023/04/18 00:09:24;;;;;;;18.30;14.30;;;;;;;9.96;86.79;98573.41;4187800;28;20228;-81
2023/04/18 00:11:29;;;;;;;18.30;15.20;;;;;;;9.98;86.90;98574.16;4172368;28;20655;-81
2023/04/18 00:13:34;;;;;;;20.80;14.03;;;;;;;9.99;87.20;98575.81;4186598;28;20629;-81
2023/04/18 00:15:37;;;;;;;19.80;14.88;;;;;;;10.03;87.06;98572.13;4184720;28;20627;-81
2023/04/18 00:17:40;;;;;;;16.30;14.17;;;;;;;10.04;86.97;98566.00;4171179;28;20240;-81
2023/04/18 00:19:43;;;;;;;19.07;14.20;;;;;;;10.07;87.18;98568.41;4191283;28;20632;-81
2023/04/18 00:21:46;;;;;;;19.87;14.87;;;;;;;10.06;86.39;98569.34;4186119;28;20704;-81
2023/04/18 00:23:49;;;;;;;18.10;14.80;;;;;;;10.06;86.59;98561.53;4184168;28;20713;-81
2023/04/18 00:25:52;;;;;;;21.40;15.30;;;;;;;10.08;86.59;98562.25;4184389;28;20300;-81
2023/04/18 00:27:55;;;;;;;17.33;15.23;;;;;;;10.02;85.95;98554.81;4169931;28;20648;-81
2023/04/18 00:30:00;;;;;;;20.73;15.33;;;;;;;9.99;86.00;98554.97;4186740;28;20627;-81
2023/04/18 00:32:03;;;;;;;20.25;15.48;;;;;;;9.96;86.64;98560.38;4183881;28;20632;-80
2023/04/18 00:34:06;;;;;;;18.93;15.00;;;;;;;9.96;86.22;98555.16;4186674;28;20224;-81
2023/04/18 00:36:09;;;;;;;19.20;15.30;;;;;;;9.93;86.15;98552.72;4178547;28;21081;-81
2023/04/18 00:38:13;;;;;;;16.88;14.77;;;;;;;9.94;86.96;98551.81;4185974;28;21060;-81
2023/04/18 00:40:16;;;;;;;16.40;14.13;;;;;;;9.94;86.70;98551.00;4168059;28;20817;-81
2023/04/18 00:42:19;;;;;;;17.00;13.77;;;;;;;9.90;85.96;98550.28;4184967;28;20658;-81
2023/04/18 00:44:22;;;;;;;19.00;15.50;;;;;;;9.88;86.20;98546.09;4188631;28;20701;-81
2023/04/18 00:46:27;;;;;;;21.70;15.80;;;;;;;9.76;86.63;98540.75;4186083;28;20640;-81
2023/04/18 00:48:30;;;;;;;18.33;15.07;;;;;;;9.75;87.04;98539.09;4187157;28;20671;-81
2023/04/18 00:50:33;;;;;;;19.15;14.73;;;;;;;9.75;87.21;98542.50;4170154;28;20682;-81
2023/04/18 00:52:37;;;;;;;21.13;14.93;;;;;;;9.76;87.59;98538.13;4187295;28;20236;-81
2023/04/18 00:54:41;;;;;;;17.77;14.27;;;;;;;9.76;86.78;98535.53;4185436;28;20644;-81
2023/04/18 00:56:45;;;;;;;19.60;14.23;;;;;;;9.77;87.55;98540.66;4178516;28;20726;-80
2023/04/18 00:58:50;;;;;;;17.57;14.60;;;;;;;9.79;87.34;98535.34;4184176;28;20236;-81
2023/04/18 01:00:53;;;;;;;18.93;14.80;;;;;;;9.73;87.33;98538.34;4185262;28;20623;-80
2023/04/18 01:02:59;;;;;;;16.30;13.50;;;;;;;9.65;87.63;98528.38;4168100;28;20630;-81
2023/04/18 01:05:03;;;;;;;17.77;14.00;;;;;;;9.58;87.21;98526.19;4182660;28;20733;-81
2023/04/18 01:07:07;;;;;;;18.42;14.10;;;;;;;9.53;87.50;98525.59;4185098;28;20662;-80
2023/04/18 01:09:10;;;;;;;18.02;13.75;;;;;;;9.55;87.57;98526.38;4181462;28;20210;-80
2023/04/18 01:11:13;;;;;;;16.88;13.57;;;;;;;9.51;87.55;98520.47;4183481;28;20248;-80
2023/04/18 01:13:17;;;;;;;15.90;13.17;;;;;;;9.48;87.44;98519.84;4184411;28;20209;-80
2023/04/18 01:15:20;;;;;;;16.25;14.02;;;;;;;9.43;87.73;98517.50;4179962;28;20636;-80
2023/04/18 01:17:24;;;;;;;17.07;13.67;;;;;;;9.44;88.37;98518.31;4184503;28;20198;-81
2023/04/18 01:19:28;;;;;;;17.00;13.70;;;;;;;9.45;87.91;98517.41;4190079;28;20639;-80
2023/04/18 01:21:32;;;;;;;16.98;13.05;;;;;;;9.45;88.33;98512.19;4185632;28;20218;-80
2023/04/18 01:23:36;;;;;;;14.57;12.73;;;;;;;9.45;88.26;98504.38;4171178;28;21459;-80
2023/04/18 01:25:42;;;;;;;16.73;13.70;;;;;;;9.45;88.40;98507.00;4186789;28;20643;-80
2023/04/18 01:27:46;;;;;;;18.40;14.10;;;;;;;9.46;88.25;98508.69;4185531;28;20232;-80
2023/04/18 01:29:49;;;;;;;17.83;13.80;;;;;;;9.43;88.38;98507.06;4172178;28;20628;-80
2023/04/18 01:31:52;;;;;;;16.52;13.73;;;;;;;9.42;88.27;98509.75;4184410;28;20639;-80
2023/04/18 01:33:55;;;;;;;18.25;13.77;;;;;;;9.42;88.54;98501.97;4172682;28;20687;-80
2023/04/18 01:35:58;;;;;;;16.63;13.70;;;;;;;9.42;88.34;98501.97;4190698;28;20750;-80
2023/04/18 01:38:01;;;;;;;18.75;14.65;;;;;;;9.41;87.83;98500.28;4189351;28;20671;-80
2023/04/18 01:40:07;;;;;;;16.30;13.30;;;;;;;9.40;88.73;98498.63;4190353;28;20212;-80
2023/04/18 01:42:14;;;;;;;19.43;14.80;;;;;;;9.37;88.44;98501.41;4186103;28;20638;-80
2023/04/18 01:44:19;;;;;;;16.80;14.00;;;;;;;9.34;88.59;98490.31;4186786;28;20692;-80
2023/04/18 01:46:22;;;;;;;18.55;13.20;;;;;;;9.34;88.20;98491.16;4187374;28;20210;-80
2023/04/18 01:48:25;;;;;;;19.23;14.65;;;;;;;9.29;88.33;98490.59;4165252;28;20234;-80
2023/04/18 01:50:28;;;;;;;20.40;14.40;;;;;;;9.30;88.50;98481.84;4169105;28;20260;-80
2023/04/18 01:52:31;;;;;;;17.23;14.13;;;;;;;9.30;88.36;98487.03;4188367;28;20243;-80
2023/04/18 01:54:34;;;;;;;17.67;13.32;;;;;;;9.26;88.60;98484.69;4175332;28;20690;-80
2023/04/18 01:56:38;;;;;;;18.15;14.23;;;;;;;9.23;88.74;98483.13;4185705;28;20222;-80
2023/04/18 01:58:42;;;;;;;16.05;12.90;;;;;;;9.22;88.75;98491.03;4171240;28;20195;-80
2023/04/18 02:00:45;;;;;;;16.80;13.90;;;;;;;9.19;89.18;98483.38;4191239;28;20256;-80
2023/04/18 02:02:49;;;;;;;16.85;13.80;;;;;;;9.20;88.93;98475.50;4188713;28;20297;-80
2023/04/18 02:04:55;;;;;;;20.03;13.53;;;;;;;9.20;89.51;98478.09;4169700;28;20707;-80
2023/04/18 02:06:58;;;;;;;16.37;12.93;;;;;;;9.20;89.00;98479.84;4192382;28;20616;-80
2023/04/18 02:09:01;;;;;;;17.13;13.10;;;;;;;9.24;90.23;98476.16;4187514;28;20750;-80
2023/04/18 02:11:05;;;;;;;15.07;13.03;;;;;;;9.24;89.29;98479.56;4185810;28;20725;-80
2023/04/18 02:13:08;;;;;;;20.40;15.03;;;;;;;9.22;89.77;98475.41;4180336;28;20638;-80
2023/04/18 02:15:12;;;;;;;19.10;14.50;;;;;;;9.21;89.38;98479.75;4185344;28;20636;-80
2023/04/18 02:17:15;;;;;;;17.80;13.80;;;;;;;9.21;89.10;98478.94;4203663;28;20200;-80
2023/04/18 02:19:19;;;;;;;18.55;13.98;;;;;;;9.25;88.60;98481.28;4189230;28;20634;-80
2023/04/18 02:21:22;;;;;;;16.47;13.10;;;;;;;9.28;89.19;98483.69;4185964;28;20213;-80
2023/04/18 02:23:25;;;;;;;17.98;12.70;;;;;;;9.26;88.51;98472.53;4172461;28;20690;-80
2023/04/18 02:25:30;;;;;;;17.38;14.30;;;;;;;9.30;88.81;98473.19;4174522;28;20225;-80
2023/04/18 02:27:34;;;;;;;18.48;13.68;;;;;;;9.27;88.25;98481.19;4186312;28;20198;-80
2023/04/18 02:29:37;;;;;;;16.40;13.07;;;;;;;9.26;87.88;98482.94;4187671;28;20293;-80
2023/04/18 02:31:41;;;;;;;18.35;13.73;;;;;;;9.28;87.83;98480.25;4185360;28;20205;-80
2023/04/18 02:33:46;;;;;;;16.70;14.30;;;;;;;9.25;88.97;98480.44;4173435;28;20241;-80
2023/04/18 02:35:49;;;;;;;17.35;13.43;;;;;;;9.26;88.46;98480.34;4171989;28;20232;-80
2023/04/18 02:37:52;;;;;;;17.20;13.32;;;;;;;9.27;88.62;98481.19;4181116;28;20724;-80
2023/04/18 02:39:56;;;;;;;15.80;13.00;;;;;;;9.28;88.37;98483.69;4187604;28;20697;-80
2023/04/18 02:42:00;;;;;;;17.67;13.45;;;;;;;9.27;88.60;98489.81;4170255;28;20212;-80
2023/04/18 02:44:03;;;;;;;17.58;12.50;;;;;;;9.21;88.58;98484.97;4184201;28;20272;-80
2023/04/18 02:46:07;;;;;;;15.23;12.98;;;;;;;9.22;88.35;98476.25;4204858;28;20236;-80
2023/04/18 02:48:12;;;;;;;17.93;13.47;;;;;;;9.20;88.67;98477.25;4187620;28;20725;-80
2023/04/18 02:50:15;;;;;;;15.43;12.68;;;;;;;9.14;88.50;98475.84;4192425;28;21087;-80
2023/04/18 02:52:18;;;;;;;16.40;13.75;;;;;;;9.16;88.77;98478.34;4190617;28;20807;-80
2023/04/18 02:54:23;;;;;;;17.85;13.50;;;;;;;9.16;89.12;98471.38;4190609;28;20745;-80
2023/04/18 02:56:49;;;;;;;16.52;11.95;;;;;;;9.12;89.05;98467.25;4187669;28;20205;-80
2023/04/18 02:58:59;;;;;;;15.77;12.77;;;;;;;9.11;89.60;98470.81;4183655;28;20267;-80
2023/04/18 03:01:29;;;;;;;19.13;13.20;;;;;;;9.17;88.80;98475.66;4169647;28;20331;-80
2023/04/18 03:03:43;;;;;;;18.45;13.65;;;;;;;9.04;88.70;98479.88;4186714;28;20678;-80
2023/04/18 03:06:05;;;;;;;15.38;12.85;;;;;;;9.07;88.41;98479.69;4169356;28;20241;-80
2023/04/18 03:08:09;;;;;;;17.00;12.88;;;;;;;9.09;89.04;98480.44;4186446;28;20226;-80
2023/04/18 03:10:13;;;;;;;16.70;12.60;;;;;;;9.11;89.72;98475.16;4174017;28;20206;-80
2023/04/18 03:12:16;;;;;;;17.85;14.25;;;;;;;9.09;88.56;98479.63;4184276;28;20658;-80
2023/04/18 03:14:20;;;;;;;19.92;13.90;;;;;;;9.06;88.24;98479.78;4172943;28;20597;-80
2023/04/18 03:16:27;;;;;;;18.92;13.50;;;;;;;9.04;88.75;98477.28;4190637;28;20686;-80
2023/04/18 03:18:30;;;;;;;17.20;13.00;;;;;;;9.00;89.15;98475.75;4186877;28;20719;-80
2023/04/18 03:20:36;;;;;;;16.20;11.90;;;;;;;9.03;89.50;98472.97;4171435;28;20641;-80
2023/04/18 03:22:51;;;;;;;15.93;12.93;;;;;;;9.02;88.97;98471.31;4189076;28;20242;-80
2023/04/18 03:24:59;;;;;;;18.38;14.25;;;;;;;9.02;88.33;98473.94;4183345;28;20695;-80
2023/04/18 03:27:25;;;;;;;16.42;13.20;;;;;;;9.03;88.51;98485.97;4181520;28;20194;-80
2023/04/18 03:29:28;;;;;;;17.70;12.88;;;;;;;9.04;89.50;98482.47;4169307;28;20229;-80
2023/04/18 03:31:32;;;;;;;17.60;12.90;;;;;;;9.11;87.87;98481.22;4186558;28;20209;-80
2023/04/18 03:33:37;;;;;;;15.25;12.55;;;;;;;9.06;88.91;98485.81;4185424;28;20210;-80
2023/04/18 03:35:45;;;;;;;16.38;13.50;;;;;;;9.03;88.86;98485.16;4174784;28;20655;-80
2023/04/18 03:37:49;;;;;;;17.23;13.95;;;;;;;8.91;88.21;98485.84;4169822;28;20202;-79
2023/04/18 03:40:08;;;;;;;17.42;13.27;;;;;;;8.93;88.80;98484.84;4191089;28;20258;-80
2023/04/18 03:42:11;;;;;;;20.52;14.65;;;;;;;8.91;88.25;98485.00;4188399;28;20225;-80
2023/04/18 03:44:16;;;;;;;17.10;14.18;;;;;;;8.77;89.00;98484.94;4184487;28;20221;-80
2023/04/18 03:46:20;;;;;;;16.67;14.05;;;;;;;8.67;89.90;98473.34;4185582;28;20297;-80
2023/04/18 03:48:27;;;;;;;17.40;13.98;;;;;;;8.74;90.34;98487.72;4169848;28;20206;-80
2023/04/18 03:50:34;;;;;;;26.17;16.35;;;;;;;8.81;89.70;98478.63;4175661;28;20251;-80
2023/04/18 03:52:40;;;;;;;18.52;14.13;;;;;;;8.85;90.16;98482.75;4169298;28;20209;-80
2023/04/18 03:54:43;;;;;;;19.73;14.43;;;;;;;8.87;89.60;98488.69;4172049;28;20253;-80
2023/04/18 03:56:47;;;;;;;21.58;15.15;;;;;;;8.91;89.80;98490.22;4180215;28;20610;-80
2023/04/18 03:58:51;;;;;;;18.50;13.63;;;;;;;8.95;89.32;98493.38;4171148;28;20201;-80
2023/04/18 04:00:56;;;;;;;17.58;14.30;;;;;;;8.97;89.13;98493.31;4181332;28;20693;-80
2023/04/18 04:02:59;;;;;;;16.85;13.73;;;;;;;8.99;89.04;98491.44;4182067;28;20224;-80
2023/04/18 04:05:03;;;;;;;17.40;14.90;;;;;;;8.98;89.11;98490.63;4171852;28;20230;-80
2023/04/18 04:07:06;;;;;;;20.58;14.75;;;;;;;8.86;88.84;98492.25;4168508;28;20238;-80
2023/04/18 04:09:12;;;;;;;18.40;14.50;;;;;;;8.92;88.65;98497.94;4183600;28;20236;-79
2023/04/18 04:11:16;;;;;;;18.25;14.75;;;;;;;8.92;88.46;98496.16;4198584;28;20619;-80
2023/04/18 04:13:19;;;;;;;19.70;14.00;;;;;;;8.93;89.27;98497.84;4168896;28;20549;-80
2023/04/18 04:15:23;;;;;;;17.35;14.05;;;;;;;8.96;88.86;98502.06;4181131;28;20209;-79
2023/04/18 04:17:36;;;;;;;18.05;13.75;;;;;;;9.00;89.56;98512.16;4171067;28;20241;-79
2023/04/18 04:19:39;;;;;;;21.75;15.27;;;;;;;9.05;88.92;98509.31;4185171;28;20280;-79
2023/04/18 04:21:50;;;;;;;18.23;13.77;;;;;;;9.07;88.35;98508.31;4161814;28;20294;-79
2023/04/18 04:23:53;;;;;;;19.90;14.00;;;;;;;9.12;89.65;98511.50;4186560;28;20219;-79
2023/04/18 04:26:13;;;;;;;18.08;13.90;;;;;;;9.16;89.09;98509.56;4187216;28;20211;-80
2023/04/18 04:28:25;;;;;;;16.33;13.50;;;;;;;9.14;88.59;98512.25;4173892;28;20241;-80
2023/04/18 04:30:33;;;;;;;16.92;13.88;;;;;;;9.14;89.14;98509.66;4171566;28;20718;-80
2023/04/18 04:32:37;;;;;;;19.88;13.73;;;;;;;9.19;89.02;98512.84;4171292;28;20765;-80
2023/04/18 04:34:41;;;;;;;15.95;13.05;;;;;;;9.23;88.61;98511.75;4162883;28;20203;-80
2023/04/18 04:36:47;;;;;;;17.85;14.38;;;;;;;9.26;87.47;98514.19;4162471;28;20566;-80
2023/04/18 04:38:51;;;;;;;14.70;12.48;;;;;;;9.30;88.43;98517.44;4150596;28;20358;-80
2023/04/18 04:40:58;;;;;;;16.55;13.00;;;;;;;9.35;88.25;98512.81;4188214;28;20212;-80
2023/04/18 04:43:03;;;;;;;16.98;13.77;;;;;;;9.38;87.96;98513.47;4171769;28;20210;-80
2023/04/18 04:45:11;;;;;;;17.85;13.80;;;;;;;9.42;87.98;98514.97;4182503;28;20275;-80
2023/04/18 04:47:14;;;;;;;20.15;14.40;;;;;;;9.45;87.25;98509.59;4188764;28;20210;-80
2023/04/18 04:49:18;;;;;;;18.42;13.73;;;;;;;9.49;87.67;98517.13;4178454;28;20313;-80
2023/04/18 04:51:21;;;;;;;17.27;14.50;;;;;;;9.46;87.66;98516.50;4168794;28;20572;-80
2023/04/18 04:53:26;;;;;;;18.20;13.40;;;;;;;9.46;87.87;98512.09;4182920;28;20211;-80
2023/04/18 04:55:30;;;;;;;16.27;13.85;;;;;;;9.48;87.87;98520.66;4183846;28;20237;-80
2023/04/18 04:57:33;;;;;;;17.13;13.65;;;;;;;9.53;87.72;98521.25;4172370;28;20276;-80
2023/04/18 04:59:39;;;;;;;20.27;13.93;;;;;;;9.56;87.84;98520.22;4173050;28;20209;-80
2023/04/18 05:01:42;;;;;;;16.70;14.23;;;;;;;9.49;87.84;98517.13;4188601;28;20247;-80
2023/04/18 05:03:46;;;;;;;18.43;14.00;;;;;;;9.52;87.79;98531.75;4192092;28;20716;-80
2023/04/18 05:05:50;;;;;;;19.35;14.73;;;;;;;9.52;87.69;98523.94;4174199;28;20668;-80
2023/04/18 05:07:53;;;;;;;15.85;13.02;;;;;;;9.53;87.96;98528.22;4188600;28;20716;-80
2023/04/18 05:09:56;;;;;;;17.35;14.23;;;;;;;9.58;88.51;98526.19;4191917;28;20283;-80
2023/04/18 05:12:00;;;;;;;18.10;13.60;;;;;;;9.65;87.42;98530.09;4188626;28;20255;-80
2023/04/18 05:14:03;;;;;;;20.10;14.77;;;;;;;9.69;87.99;98524.63;4191075;28;20670;-80
2023/04/18 05:16:08;;;;;;;17.70;14.27;;;;;;;9.66;87.12;98530.03;4184660;28;20212;-80
2023/04/18 05:18:12;;;;;;;18.45;13.73;;;;;;;9.63;87.05;98535.41;4191215;28;20205;-80
2023/04/18 05:20:16;;;;;;;19.35;15.30;;;;;;;9.65;87.10;98525.75;4179070;28;20210;-80
2023/04/18 05:22:19;;;;;;;19.55;14.30;;;;;;;9.73;86.67;98526.16;4185672;28;20217;-80
2023/04/18 05:24:22;;;;;;;16.90;14.00;;;;;;;9.75;87.05;98533.88;4187234;28;20213;-80
2023/04/18 05:26:25;;;;;;;18.33;13.98;;;;;;;9.80;87.08;98532.66;4189428;28;20196;-80
2023/04/18 05:28:28;;;;;;;17.80;13.87;;;;;;;9.87;86.41;98534.00;4190986;28;20216;-80
2023/04/18 05:30:31;;;;;;;17.05;14.60;;;;;;;9.89;86.18;98526.91;4188995;28;21371;-80
2023/04/18 05:32:37;;;;;;;19.17;14.00;;;;;;;10.09;85.94;98529.25;4191080;28;20242;-80
2023/04/18 05:34:41;;;;;;;15.00;12.57;;;;;;;10.21;85.37;98528.47;4185678;28;20639;-80
2023/04/18 05:36:46;;;;;;;14.33;12.23;;;;;;;10.33;85.40;98534.66;4184563;28;20749;-80
2023/04/18 05:38:49;;;;;;;18.03;13.67;;;;;;;10.28;84.27;98538.44;4189318;28;20722;-80
2023/04/18 05:40:54;;;;;;;14.73;12.23;;;;;;;10.29;84.32;98545.34;4185181;28;20635;-80
2023/04/18 05:42:57;;;;;;;16.38;13.80;;;;;;;10.36;84.85;98544.91;4176125;28;20206;-80
2023/04/18 05:45:00;;;;;;;16.80;13.20;;;;;;;10.40;85.06;98542.94;4191083;28;20233;-80
2023/04/18 05:47:04;;;;;;;18.77;14.77;;;;;;;10.38;84.80;98542.19;4185518;28;20654;-80
2023/04/18 05:49:09;;;;;;;17.90;14.27;;;;;;;10.40;84.37;98545.53;4200603;28;20989;-80
2023/04/18 05:51:12;;;;;;;17.70;13.00;;;;;;;10.17;84.17;98537.44;4183972;28;20874;-80
2023/04/18 05:53:15;;;;;;;19.10;14.10;;;;;;;10.19;84.79;98546.81;4189851;28;20642;-80
2023/04/18 05:55:18;;;;;;;16.67;13.05;;;;;;;10.18;84.71;98550.38;4170726;28;21210;-86
2023/04/18 05:57:21;;;;;;;17.43;12.90;;;;;;;10.12;84.51;98545.53;4192486;28;20633;-84
2023/04/18 05:59:25;;;;;;;19.42;14.80;;;;;;;10.01;85.29;98547.06;4166370;28;20636;-84
2023/04/18 06:01:28;;;;;;;18.20;14.45;;;;;;;9.97;84.97;98546.44;4194062;28;20197;-84
2023/04/18 06:03:31;;;;;;;17.80;14.13;;;;;;;9.94;85.38;98551.81;4182965;28;20252;-83
2023/04/18 06:05:36;;;;;;;16.90;14.23;;;;;;;9.92;85.35;98553.66;4168567;28;20672;-84
2023/04/18 06:07:39;;;;;;;18.25;13.48;;;;;;;9.88;85.48;98552.13;4184777;28;20675;-84
2023/04/18 06:09:43;;;;;;;18.40;14.67;;;;;;;9.88;85.70;98559.94;4189526;28;20212;-83
2023/04/18 06:11:46;;;;;;;19.00;13.18;;;;;;;9.87;85.79;98550.44;4186603;28;20735;-84
2023/04/18 06:13:50;;;;;;;17.40;14.20;;;;;;;9.81;86.60;98549.97;4193108;28;20194;-84
2023/04/18 06:15:53;;;;;;;16.65;13.32;;;;;;;9.72;86.54;98554.88;4176166;28;20225;-84
2023/04/18 06:17:56;;;;;;;17.85;13.45;;;;;;;9.68;87.09;98554.22;4170122;28;20236;-85
2023/04/18 06:19:59;;;;;;;17.03;13.63;;;;;;;9.60;87.73;98560.78;4186213;28;20201;-84
2023/04/18 06:22:04;;;;;;;18.88;12.88;;;;;;;9.67;87.42;98567.34;4184984;28;21265;-84
2023/04/18 06:24:07;;;;;;;19.33;15.23;;;;;;;9.70;87.56;98565.38;4184823;28;20218;-84
2023/04/18 06:26:10;;;;;;;18.17;14.00;;;;;;;9.77;86.05;98569.31;4189028;28;20250;-84
2023/04/18 06:28:13;;;;;;;21.17;14.80;;;;;;;9.69;87.14;98565.47;4202635;28;20209;-84
2023/04/18 06:30:18;;;;;;;20.10;14.30;;;;;;;9.60;87.27;98566.81;4199025;28;20205;-85
2023/04/18 06:32:21;;;;;;;19.27;13.40;;;;;;;9.64;87.53;98572.72;4190843;28;20697;-84
2023/04/18 06:34:25;;;;;;;16.35;13.18;;;;;;;9.65;87.76;98570.03;4182794;28;20255;-84
2023/04/18 06:36:28;;;;;;;19.02;15.07;;;;;;;9.63;87.72;98571.03;4171520;28;20237;-86
2023/04/18 06:38:33;;;;;;;19.33;14.63;;;;;;;9.55;87.93;98570.63;4188981;28;20263;-85
2023/04/18 06:40:36;;;;;;;18.38;14.13;;;;;;;9.67;87.97;98568.16;4187698;28;20227;-84
2023/04/18 06:42:39;;;;;;;17.60;13.65;;;;;;;9.77;87.83;98569.31;4187804;28;20213;-84
2023/04/18 06:44:43;;;;;;;19.38;15.13;;;;;;;9.79;87.51;98577.03;4190461;28;20210;-84
2023/04/18 06:46:46;;;;;;;18.92;13.80;;;;;;;9.79;87.21;98577.88;4184600;28;20221;-85
2023/04/18 06:48:50;;;;;;;18.63;13.98;;;;;;;9.72;87.17;98568.72;4185463;28;20190;-85
2023/04/18 06:50:53;;;;;;;17.50;13.80;;;;;;;9.73;87.89;98573.03;4170975;28;20455;-82
2023/04/18 06:52:56;;;;;;;22.02;14.65;;;;;;;9.79;87.92;98575.28;4188752;28;20631;-84
2023/04/18 06:55:01;;;;;;;17.45;14.15;;;;;;;9.77;88.06;98578.88;4190521;28;20209;-83
2023/04/18 06:57:04;;;;;;;17.67;14.10;;;;;;;9.85;87.91;98575.75;4193207;28;20712;-83
2023/04/18 06:59:07;;;;;;;18.73;14.17;;;;;;;9.91;87.80;98575.41;4189782;28;20680;-83
2023/04/18 07:01:10;;;;;;;19.85;14.00;;;;;;;9.89;87.82;98577.28;4166214;28;21018;-82
2023/04/18 07:03:13;;;;;;;20.10;14.47;;;;;;;9.93;88.10;98584.00;4173811;28;20216;-82
2023/04/18 07:05:16;;;;;;;19.45;15.18;;;;;;;9.94;87.77;98577.03;4186342;28;20656;-82
2023/04/18 07:07:19;;;;;;;18.53;14.43;;;;;;;10.04;87.42;98579.03;4188090;28;20425;-83
2023/04/18 07:09:23;;;;;;;19.50;15.20;;;;;;;10.16;87.63;98593.91;4189216;28;20675;-82
2023/04/18 07:11:27;;;;;;;19.67;13.73;;;;;;;10.23;87.50;98584.81;4174191;28;20653;-82
2023/04/18 07:13:30;;;;;;;19.87;15.07;;;;;;;10.43;86.73;98587.06;4188205;28;20209;-82
2023/04/18 07:15:34;;;;;;;19.77;14.80;;;;;;;10.55;86.15;98599.38;4170153;28;20641;-83
2023/04/18 07:17:37;;;;;;;23.00;16.25;;;;;;;10.58;85.70;98586.16;4159797;28;20675;-83
2023/04/18 07:19:41;;;;;;;19.08;14.50;;;;;;;10.80;86.21;98596.97;4187615;28;20685;-82
2023/04/18 07:21:44;;;;;;;19.37;14.90;;;;;;;10.89;83.76;98598.06;4187776;28;20214;-82
2023/04/18 07:23:47;;;;;;;19.75;15.38;;;;;;;11.06;84.14;98594.44;4185389;28;20675;-82
2023/04/18 07:25:51;;;;;;;19.63;15.57;;;;;;;10.97;84.42;98601.03;4188988;28;20239;-83
2023/04/18 07:27:56;;;;;;;19.50;15.10;;;;;;;11.14;84.84;98600.84;4187604;28;20636;-83
2023/04/18 07:29:59;;;;;;;20.23;15.10;;;;;;;11.22;83.70;98598.59;4169910;28;20271;-83
2023/04/18 07:32:02;;;;;;;20.13;14.52;;;;;;;11.31;83.77;98606.69;4191603;28;20663;-82
2023/04/18 07:34:08;;;;;;;22.00;15.97;;;;;;;11.47;84.99;98599.59;4170800;28;20229;-83
2023/04/18 07:36:12;;;;;;;20.90;15.20;;;;;;;11.64;84.94;98603.75;4182135;28;20640;-82
2023/04/18 07:38:15;;;;;;;19.30;15.63;;;;;;;11.79;82.72;98604.41;4187290;28;20640;-82
2023/04/18 07:40:18;;;;;;;19.57;16.50;;;;;;;11.86;81.52;98604.84;4188685;28;20644;-82
2023/04/18 07:42:21;;;;;;;20.40;15.50;;;;;;;11.78;82.06;98601.91;4176786;28;20635;-82
2023/04/18 07:44:26;;;;;;;19.13;14.90;;;;;;;11.84;82.93;98591.88;4188337;28;20639;-82
2023/04/18 07:46:31;;;;;;;19.60;15.70;;;;;;;11.92;80.56;98600.06;4189384;28;20644;-82
2023/04/18 07:48:34;;;;;;;20.47;14.87;;;;;;;12.13;80.80;98597.81;4167596;28;20721;-82
2023/04/18 07:50:38;;;;;;;21.80;14.80;;;;;;;12.29;80.46;98613.22;4176702;28;20652;-82
2023/04/18 07:52:41;;;;;;;19.77;15.70;;;;;;;12.34;81.42;98608.53;4187747;28;21320;-82
2023/04/18 07:54:44;;;;;;;21.50;16.00;;;;;;;12.55;81.46;98607.06;4183040;28;20650;-82
2023/04/18 07:56:47;;;;;;;19.40;15.57;;;;;;;12.75;79.17;98609.19;4184485;28;20627;-82
2023/04/18 07:58:50;;;;;;;21.63;16.23;;;;;;;12.75;79.94;98614.41;4187330;28;20693;-82
2023/04/18 08:00:55;;;;;;;21.90;15.83;;;;;;;12.87;78.01;98616.19;4188777;28;20639;-82
2023/04/18 08:02:58;;;;;;;18.40;14.53;;;;;;;12.80;77.90;98615.75;4174084;28;20645;-83
2023/04/18 08:05:01;;;;;;;18.13;14.80;;;;;;;12.90;78.12;98608.13;4184555;28;20699;-82
2023/04/18 08:07:05;;;;;;;18.93;14.93;;;;;;;13.08;78.54;98622.56;4189960;28;20685;-82
2023/04/18 08:09:08;;;;;;;20.30;16.50;;;;;;;13.20;77.59;98614.72;4188247;28;20694;-83
2023/04/18 08:11:11;;;;;;;20.10;15.80;;;;;;;13.16;76.97;98623.72;4185998;28;20651;-82
2023/04/18 08:13:14;;;;;;;18.80;15.43;;;;;;;13.09;77.81;98614.59;4185727;28;21219;-83
2023/04/18 08:15:17;;;;;;;20.73;15.37;;;;;;;13.18;77.48;98607.88;4185631;28;20643;-83
2023/04/18 08:17:22;;;;;;;18.27;14.97;;;;;;;13.16;76.77;98605.38;4175029;28;20633;-83
2023/04/18 08:19:25;;;;;;;18.90;15.00;;;;;;;13.20;78.54;98618.16;4199117;28;20671;-82
2023/04/18 08:21:28;;;;;;;15.17;12.60;;;;;;;13.16;78.25;98613.25;4190157;28;21214;-82
2023/04/18 08:23:31;;;;;;;19.27;16.00;;;;;;;13.02;77.48;98607.28;4170073;28;21054;-83
2023/04/18 08:25:35;;;;;;;15.73;14.03;;;;;;;12.98;78.86;98611.91;4193302;28;21227;-83
2023/04/18 08:27:38;;;;;;;18.53;15.00;;;;;;;12.89;78.81;98615.16;4187964;28;20626;-83
2023/04/18 08:29:42;;;;;;;18.77;15.70;;;;;;;12.74;79.50;98612.72;4179586;28;20647;-83
2023/04/18 08:31:45;;;;;;;19.00;14.00;;;;;;;12.65;78.33;98607.28;4182299;28;21257;-83
2023/04/18 08:33:49;;;;;;;20.90;14.63;;;;;;;12.64;78.16;98611.66;4182088;28;20631;-83
2023/04/18 08:35:53;;;;;;;17.47;14.50;;;;;;;12.73;78.99;98611.03;4168240;28;20655;-83
2023/04/18 08:37:56;;;;;;;19.10;15.30;;;;;;;12.80;79.60;98623.59;4185526;28;20646;-83
2023/04/18 08:39:59;;;;;;;17.80;15.10;;;;;;;12.55;78.86;98619.31;4175941;28;20638;-83
2023/04/18 08:42:04;;;;;;;23.13;16.70;;;;;;;12.68;81.04;98620.16;4179222;28;20631;-83
2023/04/18 08:44:07;;;;;;;19.53;14.70;;;;;;;12.72;79.34;98623.31;4172178;28;20743;-83
2023/04/18 08:46:10;;;;;;;16.77;14.80;;;;;;;12.76;79.93;98614.31;4173827;28;20624;-83
2023/04/18 08:48:13;;;;;;;19.00;14.97;;;;;;;12.79;79.71;98619.34;4174950;28;20647;-83
2023/04/18 08:50:18;;;;;;;19.03;15.40;;;;;;;12.67;79.95;98618.47;4164844;28;21169;-84
2023/04/18 08:52:22;;;;;;;18.33;14.70;;;;;;;12.75;79.39;98627.50;4187835;28;20990;-83
2023/04/18 08:54:29;;;;;;;21.13;17.20;;;;;;;12.79;79.19;98628.94;4164638;28;20733;-83
2023/04/18 08:56:32;;;;;;;18.48;16.42;;;;;;;12.95;79.37;98627.81;4171231;28;20760;-83
2023/04/18 08:58:35;;;;;;;17.93;16.03;;;;;;;12.89;78.03;98641.34;4168658;28;20805;-83
2023/04/18 09:00:38;;;;;;;20.10;16.07;;;;;;;12.86;79.13;98627.63;4183291;28;20639;-83
2023/04/18 09:02:42;;;;;;;18.17;16.27;;;;;;;12.78;77.47;98630.72;4180207;28;20681;-84
2023/04/18 09:04:51;;;;;;;19.27;15.63;;;;;;;12.87;78.57;98639.75;4190670;28;20655;-83
2023/04/18 09:06:55;;;;;;;17.80;14.97;;;;;;;12.90;79.27;98634.31;4187048;28;20985;-83
2023/04/18 09:08:59;;;;;;;18.40;14.70;;;;;;;12.98;79.24;98632.03;4171612;28;20715;-83
2023/04/18 09:11:24;;;;;;;15.70;13.97;;;;;;;13.04;78.55;98645.50;4186865;28;20662;-83
2023/04/18 09:13:39;;;;;;;17.73;14.27;;;;;;;13.06;79.42;98641.00;4181407;28;20711;-83
2023/04/18 09:15:54;;;;;;;17.40;13.87;;;;;;;13.07;78.58;98628.75;4183289;28;20690;-83
2023/04/18 09:17:58;;;;;;;17.73;14.53;;;;;;;13.17;78.68;98629.78;4185727;28;20639;-83
2023/04/18 09:20:03;;;;;;;17.43;13.50;;;;;;;13.55;79.44;98640.06;4183694;28;20628;-83
2023/04/18 09:22:08;;;;;;;16.90;14.00;;;;;;;14.03;78.00;98632.13;4172341;28;20632;-84
2023/04/18 09:24:22;;;;;;;15.57;13.87;;;;;;;14.03;75.91;98632.13;4186747;28;20649;-84
2023/04/18 09:26:33;;;;;;;15.73;14.03;;;;;;;14.03;76.03;98633.91;4183677;28;24922;-83
2023/04/18 09:28:37;;;;;;;15.93;13.03;;;;;;;14.22;76.12;98637.69;4182174;28;20708;-84
2023/04/18 09:30:41;;;;;;;17.80;14.13;;;;;;;14.66;76.16;98638.69;4183701;28;20648;-83
2023/04/18 09:32:57;;;;;;;16.93;15.13;;;;;;;14.68;73.23;98637.59;4184388;28;20641;-83
2023/04/18 09:35:04;;;;;;;16.80;15.00;;;;;;;14.48;73.99;98640.06;4189532;28;20629;-84
2023/04/18 09:37:09;;;;;;;17.20;14.43;;;;;;;14.32;74.70;98630.81;4165752;28;21011;-83